Time;durP1;ratioP1;P1;durP2;ratioP2;P2;SDS_P1;SDS_P2;PMS_P1;PMS_P2;Temp;Humidity;BMP_temperature;BMP_pressure;BME280_temperature;BME280_humidity;BME280_pressure;Samples;Min_cycle;Max_cycle;Signal;HPM_P1;HPM_P2
2023/07/25 00:00:03;;;;;;;8.68;4.82;;;;;;;15.54;100.00;95123.81;1022587;28;20034;-73
2023/07/25 00:00:34;;;;;;;8.63;4.28;;;;;;;15.53;100.00;95122.25;1022027;28;20774;-71
2023/07/25 00:01:04;;;;;;;8.38;4.70;;;;;;;15.55;100.00;95116.63;1014622;29;20040;-72
2023/07/25 00:01:35;;;;;;;9.40;4.40;;;;;;;15.50;100.00;95114.94;1014545;29;20830;-72
2023/07/25 00:02:06;;;;;;;8.23;5.05;;;;;;;15.47;100.00;95106.84;1022455;28;20027;-72
2023/07/25 00:02:36;;;;;;;8.52;4.63;;;;;;;15.55;100.00;95117.41;1022310;29;20430;-72
2023/07/25 00:03:07;;;;;;;8.23;4.65;;;;;;;15.55;100.00;95114.00;1018499;29;20019;-73
2023/07/25 00:03:37;;;;;;;7.60;4.32;;;;;;;15.50;100.00;95114.94;1020263;28;20693;-73
2023/07/25 00:04:08;;;;;;;11.45;5.10;;;;;;;15.56;100.00;95118.22;1018608;29;20046;-72
2023/07/25 00:04:38;;;;;;;10.15;4.80;;;;;;;15.52;100.00;95106.69;1018467;29;20600;-71
2023/07/25 00:05:09;;;;;;;5.82;3.92;;;;;;;15.55;100.00;95114.78;1018403;29;20036;-71
2023/07/25 00:05:39;;;;;;;6.65;4.60;;;;;;;15.51;100.00;95102.50;1018677;28;20098;-73
2023/07/25 00:06:10;;;;;;;7.63;4.47;;;;;;;15.54;100.00;95107.16;1026782;28;20082;-71
2023/07/25 00:06:40;;;;;;;6.35;4.28;;;;;;;15.55;100.00;95106.06;1026439;28;20023;-72
2023/07/25 00:07:11;;;;;;;8.68;4.22;;;;;;;15.55;100.00;95112.13;1029771;28;20042;-73
2023/07/25 00:07:41;;;;;;;9.30;4.90;;;;;;;15.57;100.00;95114.47;1030450;28;20387;-71
2023/07/25 00:08:12;;;;;;;9.07;4.50;;;;;;;15.58;100.00;95108.09;1026641;28;20079;-74
2023/07/25 00:08:42;;;;;;;13.05;4.60;;;;;;;15.59;100.00;95109.66;1024475;28;20019;-71
2023/07/25 00:09:13;;;;;;;7.07;4.70;;;;;;;15.59;100.00;95109.66;1020356;29;20628;-74
2023/07/25 00:09:43;;;;;;;8.02;4.13;;;;;;;15.59;100.00;95106.22;1018510;29;20054;-73
2023/07/25 00:10:14;;;;;;;9.50;4.47;;;;;;;15.61;100.00;95106.69;1018533;29;20102;-71
2023/07/25 00:10:44;;;;;;;12.15;4.85;;;;;;;15.60;100.00;95105.94;1021154;29;20055;-72
2023/07/25 00:11:15;;;;;;;9.52;4.45;;;;;;;15.58;100.00;95100.16;1026389;28;20038;-72
2023/07/25 00:11:46;;;;;;;9.98;4.20;;;;;;;15.58;100.00;95100.16;1022525;29;20054;-73
2023/07/25 00:12:16;;;;;;;8.68;4.80;;;;;;;15.63;100.00;95107.97;1018491;29;20041;-74
2023/07/25 00:12:47;;;;;;;10.13;5.05;;;;;;;15.64;100.00;95098.94;1022319;29;20747;-71
2023/07/25 00:13:17;;;;;;;11.90;4.47;;;;;;;15.63;100.00;95100.03;1014834;29;20055;-72
2023/07/25 00:13:48;;;;;;;6.72;4.78;;;;;;;15.57;100.00;95088.03;1018760;28;20020;-73
2023/07/25 00:14:18;;;;;;;7.47;4.57;;;;;;;15.63;100.00;95097.38;1022370;28;20055;-72
2023/07/25 00:14:49;;;;;;;9.35;4.32;;;;;;;15.56;100.00;95087.25;1022562;29;20023;-73
2023/07/25 00:15:19;;;;;;;8.65;4.68;;;;;;;15.64;100.00;95093.63;1018566;29;20473;-73
2023/07/25 00:15:50;;;;;;;8.77;4.43;;;;;;;15.63;100.00;95092.09;1015110;29;20024;-72
2023/07/25 00:16:21;;;;;;;11.15;4.20;;;;;;;15.60;100.00;95092.72;1014763;29;20023;-72
2023/07/25 00:16:51;;;;;;;6.68;4.60;;;;;;;15.64;100.00;95104.22;1022504;29;20020;-74
2023/07/25 00:17:22;;;;;;;9.60;4.15;;;;;;;15.60;100.00;95089.28;1018753;29;20090;-73
2023/07/25 00:17:52;;;;;;;6.95;4.65;;;;;;;15.62;100.00;95095.81;1018495;28;20820;-74
2023/07/25 00:18:22;;;;;;;7.90;4.70;;;;;;;15.66;100.00;95098.59;1026336;28;20022;-72
2023/07/25 00:18:53;;;;;;;7.93;4.43;;;;;;;15.66;100.00;95102.09;1022489;28;20046;-72
2023/07/25 00:19:24;;;;;;;8.18;4.63;;;;;;;15.66;100.00;95096.78;1018554;28;20409;-73
2023/07/25 00:19:54;;;;;;;7.80;4.60;;;;;;;15.65;100.00;95097.84;1014449;29;20724;-73
2023/07/25 00:20:25;;;;;;;8.65;5.03;;;;;;;15.65;100.00;95097.84;1014174;29;20522;-71
2023/07/25 00:20:55;;;;;;;9.75;4.88;;;;;;;15.67;100.00;95097.56;1022192;29;20042;-72
2023/07/25 00:21:26;;;;;;;5.75;4.18;;;;;;;15.67;100.00;95095.69;1022613;28;20023;-75
2023/07/25 00:21:56;;;;;;;13.55;5.65;;;;;;;15.66;100.00;95099.44;1026368;28;20527;-71
2023/07/25 00:22:27;;;;;;;7.53;4.43;;;;;;;15.51;100.00;95068.13;1026427;28;20120;-71
2023/07/25 00:22:57;;;;;;;16.95;4.85;;;;;;;15.67;100.00;95098.34;1022482;28;20034;-73
2023/07/25 00:23:28;;;;;;;8.15;4.25;;;;;;;15.66;100.00;95094.16;1026573;28;20025;-71
2023/07/25 00:23:58;;;;;;;8.02;4.90;;;;;;;15.69;100.00;95098.00;1022522;28;20070;-71
2023/07/25 00:24:29;;;;;;;8.48;4.85;;;;;;;15.69;100.00;95092.72;1026506;28;20520;-71
2023/07/25 00:24:59;;;;;;;9.73;4.63;;;;;;;15.68;100.00;95094.59;1026438;28;20027;-72
2023/07/25 00:25:29;;;;;;;8.18;4.40;;;;;;;15.64;100.00;95091.00;1018680;29;20028;-73
2023/07/25 00:26:00;;;;;;;9.70;4.43;;;;;;;15.66;100.00;95096.78;1018416;29;20024;-73
2023/07/25 00:26:30;;;;;;;7.25;3.88;;;;;;;15.67;100.00;95098.34;1022563;28;20437;-72
2023/07/25 00:27:01;;;;;;;9.52;4.72;;;;;;;15.66;100.00;95094.16;1022537;28;20144;-73
2023/07/25 00:27:31;;;;;;;12.25;4.22;;;;;;;15.65;100.00;95097.06;1022664;28;20038;-72
2023/07/25 00:28:02;;;;;;;7.03;4.90;;;;;;;15.60;100.00;95084.78;1026340;28;20047;-74
2023/07/25 00:28:32;;;;;;;7.10;4.60;;;;;;;15.66;100.00;95099.44;1022504;29;20034;-71
2023/07/25 00:29:03;;;;;;;6.97;4.32;;;;;;;15.63;100.00;95097.38;1010741;29;20101;-71
2023/07/25 00:29:33;;;;;;;6.68;4.32;;;;;;;15.65;100.00;95100.47;1010708;29;20429;-71
2023/07/25 00:30:05;;;;;;;8.32;4.40;;;;;;;15.62;100.00;95090.50;1014794;29;20104;-75
2023/07/25 00:30:35;;;;;;;7.10;4.45;;;;;;;15.67;100.00;95095.69;1014229;29;20111;-71
2023/07/25 00:31:07;;;;;;;7.53;4.35;;;;;;;15.67;100.00;95100.97;1022407;28;20023;-72
2023/07/25 00:31:37;;;;;;;7.63;4.50;;;;;;;15.67;100.00;95098.34;1018472;29;20031;-72
2023/07/25 00:32:08;;;;;;;8.43;4.50;;;;;;;15.62;100.00;95097.66;1019015;28;20536;-72
2023/07/25 00:32:38;;;;;;;8.38;4.70;;;;;;;15.65;100.00;95094.41;1026377;28;20038;-73
2023/07/25 00:33:09;;;;;;;8.15;4.40;;;;;;;15.63;100.00;95094.72;1029667;28;20037;-72
2023/07/25 00:33:39;;;;;;;8.63;4.28;;;;;;;15.65;100.00;95095.19;1030435;28;20133;-72
2023/07/25 00:34:10;;;;;;;10.88;4.70;;;;;;;15.64;100.00;95098.94;1022363;29;20086;-72
2023/07/25 00:34:40;;;;;;;9.98;4.47;;;;;;;15.65;100.00;95099.69;1014389;29;20088;-72
2023/07/25 00:35:11;;;;;;;9.45;4.68;;;;;;;15.64;100.00;95096.28;1014750;29;20681;-71
2023/07/25 00:35:41;;;;;;;7.45;4.38;;;;;;;15.62;100.00;95093.16;1014579;29;20111;-74
2023/07/25 00:36:12;;;;;;;6.53;4.40;;;;;;;15.63;100.00;95094.72;1018686;28;20682;-72
2023/07/25 00:36:42;;;;;;;8.45;4.63;;;;;;;15.62;100.00;95098.44;1021976;29;20031;-72
2023/07/25 00:37:13;;;;;;;13.55;4.75;;;;;;;15.61;100.00;95096.13;1022619;28;20024;-73
2023/07/25 00:37:43;;;;;;;14.57;5.80;;;;;;;15.55;100.00;95085.69;1030662;28;20030;-71
2023/07/25 00:38:14;;;;;;;17.45;4.78;;;;;;;15.59;100.00;95101.72;1026289;28;20026;-74
2023/07/25 00:38:44;;;;;;;10.10;4.78;;;;;;;15.57;100.00;95090.69;1026332;28;20022;-74
2023/07/25 00:39:14;;;;;;;16.45;4.97;;;;;;;15.59;100.00;95093.00;1022444;29;20016;-72
2023/07/25 00:39:45;;;;;;;12.98;4.75;;;;;;;15.59;100.00;95101.72;1018551;29;20012;-71
2023/07/25 00:40:15;;;;;;;7.75;3.80;;;;;;;15.55;100.00;95095.50;1026109;28;20489;-72
2023/07/25 00:40:46;;;;;;;11.98;4.85;;;;;;;15.54;100.00;95094.72;1017901;29;20020;-72
2023/07/25 00:41:17;;;;;;;6.45;4.38;;;;;;;15.56;100.00;95089.91;1022245;29;20062;-72
2023/07/25 00:41:47;;;;;;;6.85;4.70;;;;;;;15.56;100.00;95094.41;1022574;29;20105;-73
2023/07/25 00:42:18;;;;;;;10.68;4.60;;;;;;;15.55;100.00;95090.97;1026320;28;20018;-72
2023/07/25 00:42:54;;;;;;;7.70;4.60;;;;;;;15.54;100.00;95097.34;1022550;29;20031;-72
2023/07/25 00:43:25;;;;;;;5.00;4.00;;;;;;;15.54;100.00;95100.00;1018485;29;20015;-72
2023/07/25 00:43:55;;;;;;;7.00;4.13;;;;;;;15.55;100.00;95092.84;1018508;29;20108;-71
2023/07/25 00:44:26;;;;;;;7.10;4.50;;;;;;;15.54;100.00;95089.44;1020406;28;20425;-73
2023/07/25 00:44:56;;;;;;;7.82;4.65;;;;;;;15.54;100.00;95096.59;1026301;28;20030;-74
2023/07/25 00:45:27;;;;;;;9.55;4.68;;;;;;;15.54;100.00;95094.72;1030557;28;20034;-71
2023/07/25 00:45:57;;;;;;;7.47;4.80;;;;;;;15.48;100.00;95080.09;1030368;28;20042;-72
2023/07/25 00:46:28;;;;;;;10.57;4.72;;;;;;;15.57;100.00;95090.69;1023027;28;20034;-72
2023/07/25 00:46:58;;;;;;;8.35;4.50;;;;;;;15.58;100.00;95086.94;1022394;29;20046;-72
2023/07/25 00:47:28;;;;;;;7.15;4.55;;;;;;;15.59;100.00;95085.06;1022536;29;20026;-73
2023/07/25 00:47:59;;;;;;;6.97;4.38;;;;;;;15.60;100.00;95086.66;1022549;28;20042;-72
2023/07/25 00:48:30;;;;;;;6.45;4.57;;;;;;;15.58;100.00;95084.28;1029734;28;20034;-71
2023/07/25 00:49:00;;;;;;;7.53;4.78;;;;;;;15.60;100.00;95087.41;1030335;28;20520;-72
2023/07/25 00:49:31;;;;;;;6.72;4.20;;;;;;;15.59;100.00;95083.19;1022430;29;20023;-72
2023/07/25 00:50:01;;;;;;;7.78;4.40;;;;;;;15.60;100.00;95087.41;1018312;29;20720;-71
2023/07/25 00:50:32;;;;;;;6.57;4.65;;;;;;;15.48;100.00;95068.72;1013864;29;20028;-71
2023/07/25 00:51:03;;;;;;;10.18;4.63;;;;;;;15.55;100.00;95074.34;1018376;29;20027;-74
2023/07/25 00:51:34;;;;;;;7.10;4.70;;;;;;;15.63;100.00;95083.38;1014270;29;20055;-74
2023/07/25 00:52:04;;;;;;;7.10;4.70;;;;;;;15.61;100.00;95078.38;1010728;29;20025;-72
2023/07/25 00:52:35;;;;;;;9.52;5.72;;;;;;;15.60;100.00;95071.56;1014611;29;20060;-71
2023/07/25 00:53:06;;;;;;;7.10;4.25;;;;;;;15.62;100.00;95081.81;1018485;29;20580;-73
2023/07/25 00:53:36;;;;;;;8.55;4.63;;;;;;;15.58;100.00;95068.44;1018444;28;20027;-73
2023/07/25 00:54:07;;;;;;;9.30;4.72;;;;;;;15.57;100.00;95066.88;1014655;29;20526;-74
2023/07/25 00:54:38;;;;;;;7.90;5.47;;;;;;;15.62;100.00;95079.94;1010590;29;20033;-71
2023/07/25 00:55:08;;;;;;;9.02;5.05;;;;;;;15.59;100.00;95069.97;1008578;29;20148;-72
2023/07/25 00:55:39;;;;;;;10.85;4.00;;;;;;;15.55;100.00;95067.16;1014432;29;20138;-74
2023/07/25 00:56:09;;;;;;;7.38;4.63;;;;;;;15.62;100.00;95072.00;1014672;29;20035;-74
2023/07/25 00:56:39;;;;;;;5.95;4.28;;;;;;;15.56;100.00;95068.75;1018993;28;20215;-73
2023/07/25 00:57:10;;;;;;;10.35;5.15;;;;;;;15.49;100.00;95054.41;1014633;29;20075;-72
2023/07/25 00:57:40;;;;;;;10.65;4.80;;;;;;;15.63;100.00;95065.63;1014373;29;20036;-72
2023/07/25 00:58:11;;;;;;;8.18;4.72;;;;;;;15.64;100.00;95072.47;1013715;29;20032;-72
2023/07/25 00:58:41;;;;;;;5.78;4.20;;;;;;;15.62;100.00;95064.06;1020428;29;20478;-73
2023/07/25 00:59:12;;;;;;;7.30;4.50;;;;;;;15.62;100.00;95069.34;1022466;28;20034;-71
2023/07/25 00:59:43;;;;;;;6.03;4.10;;;;;;;15.58;100.00;95063.13;1022041;29;20054;-74
2023/07/25 01:00:14;;;;;;;5.25;4.03;;;;;;;15.59;100.00;95072.63;1014233;29;20036;-73
2023/07/25 01:00:44;;;;;;;5.95;4.28;;;;;;;15.60;100.00;95066.25;1014169;29;20044;-73
2023/07/25 01:01:15;;;;;;;8.85;4.50;;;;;;;15.52;100.00;95059.09;1014702;29;20032;-72
2023/07/25 01:01:45;;;;;;;7.97;4.65;;;;;;;15.59;100.00;95069.19;1015602;28;20573;-73
2023/07/25 01:02:15;;;;;;;7.20;4.30;;;;;;;15.59;100.00;95069.19;1018351;29;20024;-73
2023/07/25 01:02:46;;;;;;;10.32;4.30;;;;;;;15.60;100.00;95068.13;1014626;29;20417;-73
2023/07/25 01:03:16;;;;;;;8.70;4.35;;;;;;;15.55;100.00;95058.47;1010735;29;20025;-72
2023/07/25 01:03:47;;;;;;;6.07;4.00;;;;;;;15.58;100.00;95063.13;1010574;29;20021;-72
2023/07/25 01:04:17;;;;;;;9.32;4.82;;;;;;;15.56;100.00;95065.34;1014574;29;20043;-71
2023/07/25 01:04:48;;;;;;;7.82;4.25;;;;;;;15.53;100.00;95055.38;1018467;29;20051;-72
2023/07/25 01:05:19;;;;;;;6.43;4.35;;;;;;;15.55;100.00;95059.25;1016830;28;20023;-71
2023/07/25 01:05:49;;;;;;;9.35;4.78;;;;;;;15.57;100.00;95066.88;1022143;29;20147;-73
2023/07/25 01:06:20;;;;;;;8.55;3.80;;;;;;;15.52;100.00;95051.94;1022340;29;20030;-73
2023/07/25 01:06:52;;;;;;;7.30;4.50;;;;;;;15.58;100.00;95063.13;1018321;29;20787;-74
2023/07/25 01:07:22;;;;;;;8.70;4.45;;;;;;;15.54;100.00;95062.22;1018330;29;20027;-74
2023/07/25 01:07:53;;;;;;;6.55;4.30;;;;;;;15.59;100.00;95064.69;1014671;29;20407;-75
2023/07/25 01:08:23;;;;;;;10.25;4.63;;;;;;;15.59;100.00;95063.91;1018604;29;20133;-75
2023/07/25 01:08:54;;;;;;;9.18;4.53;;;;;;;15.58;100.00;95065.78;1022123;29;20046;-71
2023/07/25 01:09:54;;;;;;;9.00;4.40;;;;;;;15.60;100.00;95066.25;1022400;28;20130;-75
2023/07/25 01:10:24;;;;;;;7.93;4.05;;;;;;;15.61;100.00;95067.81;1013325;29;20271;-75
2023/07/25 01:10:55;;;;;;;10.05;4.97;;;;;;;15.60;100.00;95060.97;1021877;29;20043;-74
2023/07/25 01:11:25;;;;;;;11.57;5.07;;;;;;;15.58;100.00;95063.13;1018367;29;20031;-74
2023/07/25 01:11:56;;;;;;;12.00;4.70;;;;;;;15.61;100.00;95074.97;1013501;29;20766;-75
2023/07/25 01:12:26;;;;;;;5.97;4.10;;;;;;;15.60;100.00;95070.78;1013704;29;20091;-72
2023/07/25 01:12:57;;;;;;;7.18;4.35;;;;;;;15.60;100.00;95068.91;1014399;29;20091;-71
2023/07/25 01:13:27;;;;;;;8.93;4.63;;;;;;;15.60;100.00;95071.56;1014460;29;20039;-73
2023/07/25 01:13:57;;;;;;;7.13;4.28;;;;;;;15.58;100.00;95065.78;1010302;29;20036;-72
2023/07/25 01:14:30;;;;;;;9.27;4.75;;;;;;;15.59;100.00;95069.97;1020476;29;20081;-74
2023/07/25 01:15:01;;;;;;;9.07;4.43;;;;;;;15.58;100.00;95063.13;1018397;29;20059;-73
2023/07/25 01:15:31;;;;;;;13.07;4.20;;;;;;;15.55;100.00;95053.19;1018941;29;20128;-74
2023/07/25 01:16:02;;;;;;;7.15;4.47;;;;;;;15.54;100.00;95056.91;1014113;29;20039;-71
2023/07/25 01:16:32;;;;;;;10.80;4.50;;;;;;;15.61;100.00;95061.75;1017767;29;20078;-73
2023/07/25 01:17:13;;;;;;;5.75;4.20;;;;;;;15.59;100.00;95058.63;1026107;28;20031;-73
2023/07/25 01:17:43;;;;;;;10.23;4.20;;;;;;;15.58;100.00;95057.84;1028143;28;20033;-74
2023/07/25 01:18:13;;;;;;;7.10;4.65;;;;;;;15.58;100.00;95057.84;1026151;28;20034;-71
2023/07/25 01:18:44;;;;;;;10.55;5.10;;;;;;;15.58;100.00;95052.56;1014378;29;20024;-74
2023/07/25 01:19:15;;;;;;;7.50;5.05;;;;;;;15.55;100.00;95048.66;1018183;29;20071;-73
2023/07/25 01:19:46;;;;;;;9.50;4.55;;;;;;;15.51;100.00;95047.72;1022331;29;20549;-72
2023/07/25 01:20:17;;;;;;;8.13;5.10;;;;;;;15.60;100.00;95060.97;1018272;29;20038;-73
2023/07/25 01:20:47;;;;;;;7.65;4.65;;;;;;;15.57;100.00;95059.72;1017564;29;20122;-72
2023/07/25 01:21:18;;;;;;;10.68;4.53;;;;;;;15.55;100.00;95051.31;1015324;29;20028;-74
2023/07/25 01:21:48;;;;;;;7.90;4.32;;;;;;;15.61;100.00;95057.22;1021104;28;20031;-72
2023/07/25 01:22:19;;;;;;;11.43;4.60;;;;;;;15.61;100.00;95059.09;1021928;29;20512;-75
2023/07/25 01:22:50;;;;;;;7.50;4.47;;;;;;;15.59;100.00;95056.75;1022225;29;20078;-73
2023/07/25 01:23:20;;;;;;;9.10;4.93;;;;;;;15.62;100.00;95061.41;1018364;29;20090;-72
2023/07/25 01:23:51;;;;;;;7.60;4.43;;;;;;;15.63;100.00;95068.28;1018554;29;20035;-73
2023/07/25 01:24:21;;;;;;;8.27;4.60;;;;;;;15.64;100.00;95059.25;1014415;29;20036;-71
2023/07/25 01:24:54;;;;;;;8.20;4.50;;;;;;;15.60;100.00;95058.31;1014515;29;20032;-74
2023/07/25 01:25:25;;;;;;;7.72;4.78;;;;;;;15.61;100.00;95059.88;1010541;29;20063;-74
2023/07/25 01:25:55;;;;;;;10.20;5.03;;;;;;;15.63;100.00;95065.63;1014408;29;20040;-71
2023/07/25 01:26:26;;;;;;;9.10;5.03;;;;;;;15.62;100.00;95064.06;1010541;29;20029;-71
2023/07/25 01:26:56;;;;;;;9.45;4.50;;;;;;;15.60;100.00;95057.56;1014234;29;20032;-72
2023/07/25 01:27:26;;;;;;;7.45;4.80;;;;;;;15.64;100.00;95067.19;1018468;29;20119;-73
2023/07/25 01:27:57;;;;;;;10.02;5.03;;;;;;;15.65;100.00;95068.75;1018226;29;20032;-72
2023/07/25 01:28:27;;;;;;;7.78;4.50;;;;;;;15.66;100.00;95065.06;1022293;29;20035;-71
2023/07/25 01:28:58;;;;;;;8.35;4.80;;;;;;;15.60;100.00;95055.69;1022364;28;20493;-74
2023/07/25 01:29:29;;;;;;;8.10;4.65;;;;;;;15.62;100.00;95058.00;1026304;28;20030;-73
2023/07/25 01:29:59;;;;;;;7.78;4.70;;;;;;;15.68;100.00;95065.50;1026442;28;20039;-74
2023/07/25 01:30:30;;;;;;;10.60;5.55;;;;;;;15.65;100.00;95060.03;1021869;29;20031;-72
2023/07/25 01:31:01;;;;;;;7.47;4.80;;;;;;;15.68;100.00;95062.84;1014433;29;20028;-74
2023/07/25 01:31:31;;;;;;;8.65;4.55;;;;;;;15.68;100.00;95062.84;1018582;29;20027;-71
2023/07/25 01:32:02;;;;;;;6.38;4.78;;;;;;;15.68;100.00;95064.72;1018546;29;20043;-74
2023/07/25 01:32:32;;;;;;;9.50;4.50;;;;;;;15.65;100.00;95052.88;1018649;28;20502;-74
2023/07/25 01:33:03;;;;;;;7.40;4.40;;;;;;;15.68;100.00;95051.50;1022027;29;20043;-72
2023/07/25 01:33:33;;;;;;;9.20;4.65;;;;;;;15.68;100.00;95052.28;1018515;29;20031;-72
2023/07/25 01:34:05;;;;;;;11.85;5.30;;;;;;;15.67;100.00;95050.72;1022482;28;20051;-73
2023/07/25 01:34:35;;;;;;;21.10;5.43;;;;;;;15.67;100.00;95050.72;1022189;28;20035;-73
2023/07/25 01:35:06;;;;;;;6.05;4.53;;;;;;;15.68;100.00;95057.56;1022394;28;20094;-73
2023/07/25 01:35:37;;;;;;;8.75;4.95;;;;;;;15.57;100.00;95041.22;1018325;29;20028;-73
2023/07/25 01:36:07;;;;;;;9.90;4.60;;;;;;;15.66;100.00;95048.34;1014387;29;20032;-72
2023/07/25 01:36:37;;;;;;;8.43;4.30;;;;;;;15.68;100.00;95054.16;1018338;29;20027;-73
2023/07/25 01:37:08;;;;;;;7.57;4.75;;;;;;;15.62;100.00;95042.13;1018272;29;20074;-73
2023/07/25 01:37:39;;;;;;;11.90;5.00;;;;;;;15.66;100.00;95049.19;1018669;28;20035;-73
2023/07/25 01:38:09;;;;;;;11.32;5.15;;;;;;;15.63;100.00;95041.84;1026529;28;20579;-73
2023/07/25 01:38:40;;;;;;;6.65;4.70;;;;;;;15.65;100.00;95042.28;1026409;28;20034;-74
2023/07/25 01:39:10;;;;;;;10.02;4.90;;;;;;;15.65;100.00;95047.56;1030201;28;20029;-74
2023/07/25 01:39:42;;;;;;;7.80;4.18;;;;;;;15.64;100.00;95045.25;1025325;28;20031;-71
2023/07/25 01:40:13;;;;;;;13.95;4.93;;;;;;;15.64;100.00;95040.75;1022657;28;20043;-75
2023/07/25 01:40:43;;;;;;;10.00;4.25;;;;;;;15.66;100.00;95049.19;1021541;29;20024;-74
2023/07/25 01:41:13;;;;;;;6.97;4.38;;;;;;;15.65;100.00;95047.56;1022196;29;21052;-72
2023/07/25 01:41:44;;;;;;;8.18;4.53;;;;;;;15.47;100.00;95011.66;1025867;28;20098;-74
2023/07/25 01:42:14;;;;;;;7.25;4.45;;;;;;;15.66;100.00;95043.91;1018119;29;20127;-74
2023/07/25 01:42:45;;;;;;;9.10;4.50;;;;;;;15.65;100.00;95042.28;1018453;29;20024;-74
2023/07/25 01:43:15;;;;;;;9.25;4.97;;;;;;;15.68;100.00;95038.28;1016397;29;20393;-73
2023/07/25 01:43:46;;;;;;;8.65;4.28;;;;;;;15.69;100.00;95035.34;1018480;28;20038;-74
2023/07/25 01:44:16;;;;;;;6.35;4.78;;;;;;;15.69;100.00;95037.19;1026232;28;20034;-74
2023/07/25 01:44:47;;;;;;;6.82;4.53;;;;;;;15.70;100.00;95028.94;1023116;28;20549;-73
2023/07/25 01:45:17;;;;;;;10.02;4.72;;;;;;;15.68;100.00;95031.13;1026147;28;20058;-73
2023/07/25 01:45:48;;;;;;;7.18;4.60;;;;;;;15.68;100.00;95020.53;1026196;28;20104;-72
2023/07/25 01:46:18;;;;;;;12.90;4.38;;;;;;;15.63;100.00;95012.75;1022304;28;20086;-74
2023/07/25 01:46:48;;;;;;;6.68;4.47;;;;;;;15.70;100.00;95017.59;1018235;29;20091;-74
2023/07/25 01:47:25;;;;;;;8.50;4.68;;;;;;;15.69;100.00;95022.13;1022343;29;20062;-73
2023/07/25 01:47:56;;;;;;;11.13;4.80;;;;;;;15.73;100.00;95022.28;1023207;28;20028;-73
2023/07/25 01:48:27;;;;;;;6.75;4.43;;;;;;;15.72;100.00;95020.69;1027297;28;20509;-72
2023/07/25 01:48:57;;;;;;;10.23;4.68;;;;;;;15.65;100.00;95015.84;1030963;28;20030;-74
2023/07/25 01:49:28;;;;;;;9.30;4.85;;;;;;;15.68;100.00;95019.75;1027000;28;20509;-71
2023/07/25 01:49:58;;;;;;;10.30;5.00;;;;;;;15.70;100.00;95028.94;1022866;28;20027;-72
2023/07/25 01:50:29;;;;;;;10.18;5.28;;;;;;;15.68;100.00;95025.81;1014618;29;20088;-74
2023/07/25 01:51:00;;;;;;;8.38;4.57;;;;;;;15.70;100.00;95036.13;1011206;29;20039;-73
2023/07/25 01:51:30;;;;;;;14.75;5.05;;;;;;;15.68;100.00;95036.41;1015129;29;20020;-74
2023/07/25 01:52:01;;;;;;;10.63;5.32;;;;;;;15.72;100.00;95041.84;1015269;29;20081;-71
2023/07/25 01:52:31;;;;;;;8.68;4.55;;;;;;;15.72;100.00;95031.28;1019381;28;20066;-73
2023/07/25 01:53:02;;;;;;;9.40;4.93;;;;;;;15.71;100.00;95035.78;1019188;29;20513;-73
2023/07/25 01:53:32;;;;;;;10.55;4.90;;;;;;;15.71;100.00;95038.44;1019084;29;20028;-74
2023/07/25 01:54:03;;;;;;;14.73;5.55;;;;;;;15.70;100.00;95031.59;1023092;29;20063;-73
2023/07/25 01:54:34;;;;;;;7.93;4.60;;;;;;;15.64;100.00;95018.81;1023196;28;20070;-71
2023/07/25 01:55:05;;;;;;;11.88;4.70;;;;;;;15.71;100.00;95019.91;1020586;29;20024;-74
2023/07/25 01:55:36;;;;;;;10.15;5.03;;;;;;;15.69;100.00;95018.66;1010950;29;20119;-74
2023/07/25 01:56:07;;;;;;;7.90;4.72;;;;;;;15.63;100.00;95002.16;1011263;29;20095;-74
2023/07/25 01:56:37;;;;;;;10.18;4.80;;;;;;;15.69;100.00;95016.03;1015314;29;20510;-74
2023/07/25 01:57:08;;;;;;;13.73;5.15;;;;;;;15.69;100.00;95016.03;1019119;29;20086;-73
2023/07/25 01:57:38;;;;;;;8.63;4.32;;;;;;;15.68;100.00;95014.47;1019005;29;20035;-72
2023/07/25 01:58:09;;;;;;;11.00;4.68;;;;;;;15.67;100.00;95019.00;1013724;29;20036;-75
2023/07/25 01:58:39;;;;;;;8.70;4.78;;;;;;;15.65;100.00;95010.56;1018841;29;20028;-74
2023/07/25 01:59:11;;;;;;;8.15;4.90;;;;;;;15.66;100.00;95016.63;1019107;29;20036;-71
2023/07/25 01:59:41;;;;;;;9.32;4.45;;;;;;;15.59;100.00;95025.00;1019082;29;20527;-72
2023/07/25 02:00:12;;;;;;;8.07;4.97;;;;;;;15.65;100.00;95017.72;1014957;29;20032;-73
2023/07/25 02:00:42;;;;;;;8.15;4.70;;;;;;;15.65;100.00;95018.47;1014840;29;20625;-72
2023/07/25 02:01:13;;;;;;;10.10;4.72;;;;;;;15.65;100.00;95018.47;1018982;28;20028;-72
2023/07/25 02:01:43;;;;;;;11.20;4.40;;;;;;;15.65;100.00;95021.13;1018917;29;20027;-72
2023/07/25 02:02:13;;;;;;;10.18;5.30;;;;;;;15.62;100.00;95011.16;1015011;29;20031;-74
2023/07/25 02:02:44;;;;;;;11.10;4.88;;;;;;;15.61;100.00;95004.34;1019265;28;20032;-71
2023/07/25 02:03:17;;;;;;;9.27;4.57;;;;;;;15.67;100.00;95013.69;1022994;28;20031;-72
2023/07/25 02:03:48;;;;;;;10.45;4.85;;;;;;;15.59;100.00;95001.22;1022794;29;20027;-74
2023/07/25 02:04:18;;;;;;;12.10;5.10;;;;;;;15.69;100.00;95013.38;1019340;29;20095;-71
2023/07/25 02:04:49;;;;;;;11.60;5.15;;;;;;;15.65;100.00;95013.19;1023042;29;20027;-72
2023/07/25 02:05:19;;;;;;;11.38;4.70;;;;;;;15.67;100.00;95013.69;1019032;29;20056;-72
2023/07/25 02:05:50;;;;;;;10.13;4.82;;;;;;;15.67;100.00;95019.00;1022986;28;20042;-73
2023/07/25 02:06:21;;;;;;;10.43;5.07;;;;;;;15.67;100.00;95019.00;1022739;29;20023;-70
2023/07/25 02:06:51;;;;;;;11.13;4.70;;;;;;;15.66;100.00;95017.44;1019440;28;20640;-72
2023/07/25 02:07:21;;;;;;;8.88;4.90;;;;;;;15.66;100.00;95016.63;1022842;28;20027;-72
2023/07/25 02:07:52;;;;;;;7.53;4.85;;;;;;;15.66;100.00;95016.63;1023206;28;20034;-72
2023/07/25 02:08:22;;;;;;;10.35;5.30;;;;;;;15.59;100.00;95019.72;1022831;28;20024;-74
2023/07/25 02:08:53;;;;;;;8.70;4.93;;;;;;;15.64;100.00;95030.16;1019671;29;20036;-72
2023/07/25 02:09:23;;;;;;;10.13;5.93;;;;;;;15.60;100.00;95021.31;1018351;29;20532;-73
2023/07/25 02:09:54;;;;;;;10.02;4.90;;;;;;;15.66;100.00;95033.31;1015046;29;20094;-73
2023/07/25 02:10:24;;;;;;;7.57;4.65;;;;;;;15.65;100.00;95026.41;1010437;29;20410;-73
2023/07/25 02:10:55;;;;;;;11.35;5.65;;;;;;;15.68;100.00;95020.53;1014737;29;20091;-72
2023/07/25 02:11:25;;;;;;;7.50;4.57;;;;;;;15.68;100.00;95020.53;1019042;29;20024;-74
2023/07/25 02:11:55;;;;;;;10.70;5.50;;;;;;;15.63;100.00;95010.09;1019056;29;20035;-72
2023/07/25 02:12:28;;;;;;;7.45;4.93;;;;;;;15.68;100.00;95019.75;1019242;28;20035;-72
2023/07/25 02:12:59;;;;;;;9.65;4.90;;;;;;;15.69;100.00;95021.31;1018996;29;20024;-72
2023/07/25 02:13:29;;;;;;;5.65;4.20;;;;;;;15.70;100.00;95014.94;1019073;29;20043;-72
2023/07/25 02:14:00;;;;;;;9.23;4.75;;;;;;;15.70;100.00;95014.94;1019764;28;20031;-73
2023/07/25 02:14:30;;;;;;;11.93;4.75;;;;;;;15.72;100.00;95008.25;1023170;28;20035;-72
2023/07/25 02:15:00;;;;;;;6.15;4.07;;;;;;;15.66;100.00;95006.03;1022975;29;20646;-72
2023/07/25 02:15:31;;;;;;;10.18;5.15;;;;;;;15.64;100.00;94998.44;1023082;28;20027;-73
2023/07/25 02:16:01;;;;;;;11.90;5.35;;;;;;;15.70;100.00;95007.78;1024895;28;20031;-72
2023/07/25 02:16:36;;;;;;;8.38;4.82;;;;;;;15.71;100.00;95008.56;1026924;28;20027;-72
2023/07/25 02:17:06;;;;;;;9.02;4.88;;;;;;;15.72;100.00;95010.88;1027011;28;20163;-72
2023/07/25 02:17:37;;;;;;;7.72;4.78;;;;;;;15.71;100.00;94997.97;1027396;28;20026;-71
2023/07/25 02:18:08;;;;;;;7.47;4.72;;;;;;;15.65;100.00;94994.69;1031076;28;20391;-72
2023/07/25 02:18:38;;;;;;;13.55;4.70;;;;;;;15.73;100.00;95001.09;1022266;29;20090;-70
2023/07/25 02:19:08;;;;;;;7.18;4.50;;;;;;;15.66;100.00;94992.81;1023563;28;20031;-71
2023/07/25 02:19:39;;;;;;;8.63;4.30;;;;;;;15.71;100.00;94993.47;1019012;29;20030;-73
2023/07/25 02:20:10;;;;;;;12.32;4.88;;;;;;;15.73;100.00;95004.53;1015616;28;20537;-74
2023/07/25 02:20:40;;;;;;;7.35;4.68;;;;;;;15.71;100.00;94990.06;1022174;29;20174;-71
2023/07/25 02:21:10;;;;;;;8.88;4.70;;;;;;;15.68;100.00;94996.72;1019013;28;20028;-73
2023/07/25 02:21:41;;;;;;;10.38;4.50;;;;;;;15.70;100.00;94986.63;1023401;29;20405;-72
2023/07/25 02:22:11;;;;;;;8.43;4.32;;;;;;;15.65;100.00;94981.47;1017596;29;20016;-74